Terminal Aerodrome Forecast
Issued by NWS Mt. Holly, NJ

Current Version | Previous Version | Text Only | Print | Product List | Glossary On
Versions: 1 2 3 4 5 6 7 8 9 10 11 12 13 14 15 16 17 18 19 20
535
FTUS41 KPHI 251128
TAFILG
TAF
KILG 251128Z 2512/2612 03006KT P6SM OVC010
      TEMPO 2512/2513 SCT010
     FM251300 08008KT P6SM SCT050
     FM252200 15010KT P6SM SKC
     FM260600 00000KT P6SM SKC=

USA.gov is the U.S. government's official web portal to all federal, state and local government web resources and services.